sensor_id;sensor_type;location;lat;lon;timestamp;pressure;altitude;pressure_sealevel;temperature;humidity
11712;BME280;5912;51.034;6.984;2023-01-27T00:00:08;100267.75;;;-1.35;100.00
11712;BME280;5912;51.034;6.984;2023-01-27T00:02:35;100263.72;;;-1.37;100.00
11712;BME280;5912;51.034;6.984;2023-01-27T00:05:01;100260.31;;;-1.38;100.00
11712;BME280;5912;51.034;6.984;2023-01-27T00:07:26;100245.00;;;-1.49;100.00
11712;BME280;5912;51.034;6.984;2023-01-27T00:09:51;100251.50;;;-1.45;100.00
11712;BME280;5912;51.034;6.984;2023-01-27T00:12:18;100254.09;;;-1.45;100.00
11712;BME280;5912;51.034;6.984;2023-01-27T00:15:03;100263.56;;;-1.45;100.00
11712;BME280;5912;51.034;6.984;2023-01-27T00:17:29;100250.00;;;-1.48;100.00
11712;BME280;5912;51.034;6.984;2023-01-27T00:19:55;100257.06;;;-1.50;100.00
11712;BME280;5912;51.034;6.984;2023-01-27T00:22:20;100264.69;;;-1.48;100.00
11712;BME280;5912;51.034;6.984;2023-01-27T00:25:43;100256.53;;;-1.43;100.00
11712;BME280;5912;51.034;6.984;2023-01-27T00:28:08;100258.97;;;-1.42;100.00
11712;BME280;5912;51.034;6.984;2023-01-27T00:30:33;100233.75;;;-1.58;100.00
11712;BME280;5912;51.034;6.984;2023-01-27T00:32:58;100262.09;;;-1.38;100.00
11712;BME280;5912;51.034;6.984;2023-01-27T00:35:42;100262.75;;;-1.36;100.00
11712;BME280;5912;51.034;6.984;2023-01-27T00:38:08;100261.69;;;-1.34;100.00
11712;BME280;5912;51.034;6.984;2023-01-27T00:40:33;100259.91;;;-1.33;100.00
11712;BME280;5912;51.034;6.984;2023-01-27T00:42:58;100253.81;;;-1.32;100.00
11712;BME280;5912;51.034;6.984;2023-01-27T00:45:24;100271.16;;;-1.25;100.00
11712;BME280;5912;51.034;6.984;2023-01-27T00:48:07;100266.56;;;-1.21;100.00
11712;BME280;5912;51.034;6.984;2023-01-27T00:50:33;100269.81;;;-1.19;100.00
11712;BME280;5912;51.034;6.984;2023-01-27T00:52:58;100268.84;;;-1.18;100.00
11712;BME280;5912;51.034;6.984;2023-01-27T00:55:26;100273.19;;;-1.19;100.00
11712;BME280;5912;51.034;6.984;2023-01-27T00:57:51;100270.06;;;-1.22;100.00
11712;BME280;5912;51.034;6.984;2023-01-27T01:00:17;100274.00;;;-1.18;100.00
11712;BME280;5912;51.034;6.984;2023-01-27T01:02:42;100283.63;;;-1.11;100.00
11712;BME280;5912;51.034;6.984;2023-01-27T01:05:08;100282.56;;;-1.08;100.00
11712;BME280;5912;51.034;6.984;2023-01-27T01:07:34;100272.53;;;-1.11;100.00
11712;BME280;5912;51.034;6.984;2023-01-27T01:09:59;100284.59;;;-1.02;100.00
11712;BME280;5912;51.034;6.984;2023-01-27T01:12:24;100294.75;;;-1.01;100.00
11712;BME280;5912;51.034;6.984;2023-01-27T01:14:49;100290.44;;;-1.00;100.00
11712;BME280;5912;51.034;6.984;2023-01-27T01:17:15;100290.28;;;-0.99;100.00
11712;BME280;5912;51.034;6.984;2023-01-27T01:19:40;100290.13;;;-0.97;100.00
11712;BME280;5912;51.034;6.984;2023-01-27T01:22:05;100259.22;;;-1.16;100.00
11712;BME280;5912;51.034;6.984;2023-01-27T01:24:31;100296.78;;;-0.95;100.00
11712;BME280;5912;51.034;6.984;2023-01-27T01:26:56;100295.97;;;-0.95;100.00
11712;BME280;5912;51.034;6.984;2023-01-27T01:29:21;100298.28;;;-0.92;100.00
11712;BME280;5912;51.034;6.984;2023-01-27T01:31:49;100306.69;;;-0.90;100.00
11712;BME280;5912;51.034;6.984;2023-01-27T01:34:16;100303.16;;;-0.89;100.00
11712;BME280;5912;51.034;6.984;2023-01-27T01:36:41;100309.13;;;-0.89;100.00
11712;BME280;5912;51.034;6.984;2023-01-27T01:39:07;100281.31;;;-1.04;100.00
11712;BME280;5912;51.034;6.984;2023-01-27T01:41:32;100308.97;;;-0.87;100.00
11712;BME280;5912;51.034;6.984;2023-01-27T01:43:57;100290.66;;;-0.94;100.00
11712;BME280;5912;51.034;6.984;2023-01-27T01:46:23;100267.22;;;-1.10;100.00
11712;BME280;5912;51.034;6.984;2023-01-27T01:56:14;100301.25;;;-0.87;100.00
11712;BME280;5912;51.034;6.984;2023-01-27T01:58:43;100300.97;;;-0.84;100.00
11712;BME280;5912;51.034;6.984;2023-01-27T02:01:10;100310.19;;;-0.82;100.00
11712;BME280;5912;51.034;6.984;2023-01-27T02:03:38;100301.50;;;-0.81;100.00
11712;BME280;5912;51.034;6.984;2023-01-27T02:06:08;100304.22;;;-0.82;100.00
11712;BME280;5912;51.034;6.984;2023-01-27T02:08:38;100310.19;;;-0.82;100.00
11712;BME280;5912;51.034;6.984;2023-01-27T02:11:07;100308.16;;;-0.78;100.00
11712;BME280;5912;51.034;6.984;2023-01-27T02:13:33;100308.31;;;-0.80;100.00
11712;BME280;5912;51.034;6.984;2023-01-27T02:15:58;100310.88;;;-0.80;100.00
11712;BME280;5912;51.034;6.984;2023-01-27T02:18:25;100306.81;;;-0.82;100.00
11712;BME280;5912;51.034;6.984;2023-01-27T02:20:52;100316.16;;;-0.72;100.00
11712;BME280;5912;51.034;6.984;2023-01-27T02:26:21;100321.69;;;-0.67;100.00
11712;BME280;5912;51.034;6.984;2023-01-27T02:29:03;100319.81;;;-0.65;100.00
11712;BME280;5912;51.034;6.984;2023-01-27T02:31:29;100316.28;;;-0.64;100.00
11712;BME280;5912;51.034;6.984;2023-01-27T02:34:18;100319.53;;;-0.62;100.00
11712;BME280;5912;51.034;6.984;2023-01-27T02:36:49;100317.22;;;-0.65;100.00
11712;BME280;5912;51.034;6.984;2023-01-27T02:39:17;100310.31;;;-0.64;100.00
11712;BME280;5912;51.034;6.984;2023-01-27T02:41:50;100310.59;;;-0.67;100.00
11712;BME280;5912;51.034;6.984;2023-01-27T02:44:16;100304.06;;;-0.71;100.00
11712;BME280;5912;51.034;6.984;2023-01-27T02:46:41;100308.56;;;-0.73;100.00
11712;BME280;5912;51.034;6.984;2023-01-27T02:49:07;100316.97;;;-0.71;100.00
11712;BME280;5912;51.034;6.984;2023-01-27T02:51:33;100325.66;;;-0.72;100.00
11712;BME280;5912;51.034;6.984;2023-01-27T02:53:58;100315.47;;;-0.74;99.86
11712;BME280;5912;51.034;6.984;2023-01-27T02:56:24;100318.06;;;-0.74;99.30
11712;BME280;5912;51.034;6.984;2023-01-27T02:58:49;100328.09;;;-0.71;98.31
11712;BME280;5912;51.034;6.984;2023-01-27T03:01:15;100326.06;;;-0.67;97.80
11712;BME280;5912;51.034;6.984;2023-01-27T03:03:41;100321.03;;;-0.69;97.64
11712;BME280;5912;51.034;6.984;2023-01-27T03:06:12;100336.66;;;-0.70;97.00
11712;BME280;5912;51.034;6.984;2023-01-27T03:08:38;100327.28;;;-0.71;97.92
11712;BME280;5912;51.034;6.984;2023-01-27T03:11:03;100323.38;;;-0.75;97.62
11712;BME280;5912;51.034;6.984;2023-01-27T03:13:28;100326.75;;;-0.75;97.81
11712;BME280;5912;51.034;6.984;2023-01-27T03:15:57;100318.22;;;-0.75;97.46
11712;BME280;5912;51.034;6.984;2023-01-27T03:18:41;100323.09;;;-0.82;97.85
11712;BME280;5912;51.034;6.984;2023-01-27T03:21:12;100319.44;;;-0.89;97.56
11712;BME280;5912;51.034;6.984;2023-01-27T03:23:38;100321.88;;;-0.87;97.08
11712;BME280;5912;51.034;6.984;2023-01-27T03:26:08;100328.00;;;-0.88;97.74
11712;BME280;5912;51.034;6.984;2023-01-27T03:28:34;100313.50;;;-0.99;98.00
11712;BME280;5912;51.034;6.984;2023-01-27T03:31:01;100328.13;;;-0.90;97.84
11712;BME280;5912;51.034;6.984;2023-01-27T03:33:27;100332.47;;;-0.90;97.69
11712;BME280;5912;51.034;6.984;2023-01-27T03:35:52;100339.13;;;-0.88;97.46
11712;BME280;5912;51.034;6.984;2023-01-27T03:38:36;100333.00;;;-0.87;96.87
11712;BME280;5912;51.034;6.984;2023-01-27T03:41:20;100338.03;;;-0.85;97.62
11712;BME280;5912;51.034;6.984;2023-01-27T03:44:04;100334.63;;;-0.86;97.92
11712;BME280;5912;51.034;6.984;2023-01-27T03:46:48;100339.00;;;-0.86;97.91
11712;BME280;5912;51.034;6.984;2023-01-27T03:49:13;100317.97;;;-1.01;97.76
11712;BME280;5912;51.034;6.984;2023-01-27T03:51:38;100343.75;;;-0.82;97.72
11712;BME280;5912;51.034;6.984;2023-01-27T03:54:04;100339.13;;;-0.88;97.65
11712;BME280;5912;51.034;6.984;2023-01-27T03:56:29;100331.53;;;-0.89;98.73
11712;BME280;5912;51.034;6.984;2023-01-27T03:58:54;100338.84;;;-0.85;98.37
11712;BME280;5912;51.034;6.984;2023-01-27T04:01:22;100340.34;;;-0.82;97.88
11712;BME280;5912;51.034;6.984;2023-01-27T04:03:49;100316.72;;;-0.97;98.62
11712;BME280;5912;51.034;6.984;2023-01-27T04:06:35;100339.13;;;-0.88;98.35
11712;BME280;5912;51.034;6.984;2023-01-27T04:09:35;100340.50;;;-0.93;99.38
11712;BME280;5912;51.034;6.984;2023-01-27T04:12:10;100340.91;;;-0.88;98.77
11712;BME280;5912;51.034;6.984;2023-01-27T04:14:36;100334.78;;;-0.87;98.71
11712;BME280;5912;51.034;6.984;2023-01-27T04:17:09;100333.16;;;-0.88;98.60
11712;BME280;5912;51.034;6.984;2023-01-27T04:19:53;100333.28;;;-0.90;98.47
11712;BME280;5912;51.034;6.984;2023-01-27T04:22:19;100336.00;;;-0.91;99.51
11712;BME280;5912;51.034;6.984;2023-01-27T04:24:44;100334.41;;;-0.92;99.04
11712;BME280;5912;51.034;6.984;2023-01-27T04:27:11;100332.75;;;-0.93;99.29
11712;BME280;5912;51.034;6.984;2023-01-27T04:29:39;100339.94;;;-0.97;99.89
11712;BME280;5912;51.034;6.984;2023-01-27T04:32:07;100341.72;;;-0.97;99.66
11712;BME280;5912;51.034;6.984;2023-01-27T04:34:33;100341.31;;;-1.02;98.98
11712;BME280;5912;51.034;6.984;2023-01-27T04:36:58;100335.06;;;-1.09;99.37
11712;BME280;5912;51.034;6.984;2023-01-27T04:39:24;100286.34;;;-1.41;100.00
11712;BME280;5912;51.034;6.984;2023-01-27T04:41:50;100341.59;;;-1.05;100.00
11712;BME280;5912;51.034;6.984;2023-01-27T04:44:16;100334.66;;;-1.05;99.93
11712;BME280;5912;51.034;6.984;2023-01-27T04:46:44;100339.28;;;-1.08;99.90
11712;BME280;5912;51.034;6.984;2023-01-27T04:49:10;100342.78;;;-1.09;100.00
11712;BME280;5912;51.034;6.984;2023-01-27T04:51:35;100342.16;;;-1.11;99.94
11712;BME280;5912;51.034;6.984;2023-01-27T04:54:01;100343.91;;;-1.12;100.00
11712;BME280;5912;51.034;6.984;2023-01-27T04:56:33;100345.94;;;-1.15;99.81
11712;BME280;5912;51.034;6.984;2023-01-27T04:59:04;100344.59;;;-1.19;100.00
11712;BME280;5912;51.034;6.984;2023-01-27T05:01:30;100353.66;;;-1.25;100.00
11712;BME280;5912;51.034;6.984;2023-01-27T05:03:56;100342.94;;;-1.30;100.00
11712;BME280;5912;51.034;6.984;2023-01-27T05:06:22;100357.19;;;-1.26;100.00
11712;BME280;5912;51.034;6.984;2023-01-27T05:08:48;100357.72;;;-1.22;100.00
11712;BME280;5912;51.034;6.984;2023-01-27T05:11:14;100366.41;;;-1.23;100.00
11712;BME280;5912;51.034;6.984;2023-01-27T05:13:40;100360.19;;;-1.21;100.00
11712;BME280;5912;51.034;6.984;2023-01-27T05:16:15;100317.41;;;-1.42;100.00
11712;BME280;5912;51.034;6.984;2023-01-27T05:18:42;100359.91;;;-1.18;100.00
11712;BME280;5912;51.034;6.984;2023-01-27T05:21:11;100358.97;;;-1.17;100.00
11712;BME280;5912;51.034;6.984;2023-01-27T05:23:37;100365.72;;;-1.16;100.00
11712;BME280;5912;51.034;6.984;2023-01-27T05:28:32;100367.50;;;-1.16;100.00
11712;BME280;5912;51.034;6.984;2023-01-27T05:31:06;100340.50;;;-1.31;100.00
11712;BME280;5912;51.034;6.984;2023-01-27T05:33:31;100374.03;;;-1.12;100.00
11712;BME280;5912;51.034;6.984;2023-01-27T05:35:58;100373.75;;;-1.09;100.00
11712;BME280;5912;51.034;6.984;2023-01-27T05:38:24;100377.97;;;-1.08;100.00
11712;BME280;5912;51.034;6.984;2023-01-27T05:40:54;100364.81;;;-1.15;100.00
11712;BME280;5912;51.034;6.984;2023-01-27T05:43:19;100370.25;;;-1.08;100.00
11712;BME280;5912;51.034;6.984;2023-01-27T05:45:45;100382.44;;;-1.01;100.00
11712;BME280;5912;51.034;6.984;2023-01-27T05:48:10;100378.09;;;-1.00;100.00
11712;BME280;5912;51.034;6.984;2023-01-27T05:50:35;100383.66;;;-0.95;100.00
11712;BME280;5912;51.034;6.984;2023-01-27T05:53:00;100385.28;;;-0.94;100.00
11712;BME280;5912;51.034;6.984;2023-01-27T05:55:26;100391.16;;;-0.92;100.00
11712;BME280;5912;51.034;6.984;2023-01-27T05:57:51;100391.25;;;-0.94;100.00
11712;BME280;5912;51.034;6.984;2023-01-27T06:00:17;100385.84;;;-0.91;100.00
11712;BME280;5912;51.034;6.984;2023-01-27T06:02:42;100386.78;;;-0.92;100.00
11712;BME280;5912;51.034;6.984;2023-01-27T06:05:08;100393.44;;;-0.89;100.00
11712;BME280;5912;51.034;6.984;2023-01-27T06:07:33;100403.63;;;-0.88;100.00
11712;BME280;5912;51.034;6.984;2023-01-27T06:09:58;100393.03;;;-0.85;100.00
11712;BME280;5912;51.034;6.984;2023-01-27T06:12:24;100398.97;;;-0.84;100.00
11712;BME280;5912;51.034;6.984;2023-01-27T06:14:49;100391.25;;;-0.84;100.00
11712;BME280;5912;51.034;6.984;2023-01-27T06:17:14;100385.44;;;-0.86;100.00
11712;BME280;5912;51.034;6.984;2023-01-27T06:19:40;100389.34;;;-0.82;100.00
11712;BME280;5912;51.034;6.984;2023-01-27T06:22:05;100388.41;;;-0.81;100.00
11712;BME280;5912;51.034;6.984;2023-01-27T06:24:30;100385.16;;;-0.83;100.00
11712;BME280;5912;51.034;6.984;2023-01-27T06:26:55;100391.78;;;-0.81;100.00
11712;BME280;5912;51.034;6.984;2023-01-27T06:29:21;100385.03;;;-0.82;100.00
11712;BME280;5912;51.034;6.984;2023-01-27T06:31:46;100391.00;;;-0.81;100.00
11712;BME280;5912;51.034;6.984;2023-01-27T06:34:11;100398.59;;;-0.80;100.00
11712;BME280;5912;51.034;6.984;2023-01-27T06:36:37;100394.91;;;-0.77;99.70
11712;BME280;5912;51.034;6.984;2023-01-27T06:39:02;100401.69;;;-0.76;99.89
11712;BME280;5912;51.034;6.984;2023-01-27T06:41:27;100394.25;;;-0.79;100.00
11712;BME280;5912;51.034;6.984;2023-01-27T06:43:52;100407.53;;;-0.74;100.00
11712;BME280;5912;51.034;6.984;2023-01-27T06:46:18;100416.25;;;-0.75;100.00
11712;BME280;5912;51.034;6.984;2023-01-27T06:48:43;100289.91;;;-1.52;99.88
11712;BME280;5912;51.034;6.984;2023-01-27T06:51:08;100410.41;;;-0.77;100.00
11712;BME280;5912;51.034;6.984;2023-01-27T06:53:34;100418.56;;;-0.72;100.00
11712;BME280;5912;51.034;6.984;2023-01-27T06:56:01;100413.13;;;-0.79;100.00
11712;BME280;5912;51.034;6.984;2023-01-27T06:58:27;100425.06;;;-0.68;99.69
11712;BME280;5912;51.034;6.984;2023-01-27T07:00:53;100432.78;;;-0.68;100.00
11712;BME280;5912;51.034;6.984;2023-01-27T07:03:18;100423.84;;;-0.64;100.00
11712;BME280;5912;51.034;6.984;2023-01-27T07:05:43;100411.22;;;-0.67;100.00
11712;BME280;5912;51.034;6.984;2023-01-27T07:08:09;100424.41;;;-0.61;100.00
11712;BME280;5912;51.034;6.984;2023-01-27T07:10:34;100426.97;;;-0.61;99.71
11712;BME280;5912;51.034;6.984;2023-01-27T07:13:07;100428.59;;;-0.60;98.69
11712;BME280;5912;51.034;6.984;2023-01-27T07:15:33;100424.53;;;-0.62;98.82
11712;BME280;5912;51.034;6.984;2023-01-27T07:17:59;100425.31;;;-0.62;99.89
11712;BME280;5912;51.034;6.984;2023-01-27T07:20:25;100427.13;;;-0.62;98.57
11712;BME280;5912;51.034;6.984;2023-01-27T07:23:02;100422.22;;;-0.65;99.01
11712;BME280;5912;51.034;6.984;2023-01-27T07:25:28;100431.59;;;-0.55;98.75
11712;BME280;5912;51.034;6.984;2023-01-27T07:28:01;100419.50;;;-0.64;98.62
11712;BME280;5912;51.034;6.984;2023-01-27T07:30:27;100444.75;;;-0.48;98.37
11712;BME280;5912;51.034;6.984;2023-01-27T07:32:52;100437.16;;;-0.50;98.26
11712;BME280;5912;51.034;6.984;2023-01-27T07:35:19;100420.28;;;-0.54;97.99
11712;BME280;5912;51.034;6.984;2023-01-27T07:37:45;100446.50;;;-0.39;97.49
11712;BME280;5912;51.034;6.984;2023-01-27T07:40:10;100447.59;;;-0.32;96.26
11712;BME280;5912;51.034;6.984;2023-01-27T07:42:37;100443.38;;;-0.33;96.83
11712;BME280;5912;51.034;6.984;2023-01-27T07:45:03;100449.91;;;-0.29;96.68
11712;BME280;5912;51.034;6.984;2023-01-27T07:47:29;100442.84;;;-0.27;97.10
11712;BME280;5912;51.034;6.984;2023-01-27T07:49:54;100450.31;;;-0.24;96.94
11712;BME280;5912;51.034;6.984;2023-01-27T07:52:19;100450.03;;;-0.21;96.10
11712;BME280;5912;51.034;6.984;2023-01-27T07:54:44;100440.75;;;-0.24;96.85
11712;BME280;5912;51.034;6.984;2023-01-27T07:57:10;100447.00;;;-0.17;96.77
11712;BME280;5912;51.034;6.984;2023-01-27T07:59:35;100452.03;;;-0.15;97.35
11712;BME280;5912;51.034;6.984;2023-01-27T08:02:00;100454.34;;;-0.22;97.41
11712;BME280;5912;51.034;6.984;2023-01-27T08:04:25;100461.13;;;-0.11;96.97
11712;BME280;5912;51.034;6.984;2023-01-27T08:06:51;100430.28;;;-0.22;96.55
11712;BME280;5912;51.034;6.984;2023-01-27T08:09:16;100457.47;;;-0.09;96.59
11712;BME280;5912;51.034;6.984;2023-01-27T08:11:42;100456.47;;;0.02;96.71
11712;BME280;5912;51.034;6.984;2023-01-27T08:14:07;100456.19;;;0.05;96.28
11712;BME280;5912;51.034;6.984;2023-01-27T08:16:32;100454.00;;;0.10;95.88
11712;BME280;5912;51.034;6.984;2023-01-27T08:18:57;100441.78;;;0.12;95.73
11712;BME280;5912;51.034;6.984;2023-01-27T08:21:23;100454.91;;;0.28;96.19
11712;BME280;5912;51.034;6.984;2023-01-27T08:23:49;100461.50;;;0.40;96.13
11712;BME280;5912;51.034;6.984;2023-01-27T08:26:14;100459.28;;;0.55;95.30
11712;BME280;5912;51.034;6.984;2023-01-27T08:28:40;100463.66;;;0.72;95.11
11712;BME280;5912;51.034;6.984;2023-01-27T08:31:08;100465.50;;;0.89;94.00
11712;BME280;5912;51.034;6.984;2023-01-27T08:33:34;100467.06;;;0.99;93.18
11712;BME280;5912;51.034;6.984;2023-01-27T08:36:12;100471.72;;;1.13;91.68
11712;BME280;5912;51.034;6.984;2023-01-27T08:38:38;100467.75;;;1.19;90.58
11712;BME280;5912;51.034;6.984;2023-01-27T08:41:10;100404.94;;;0.82;90.24
11712;BME280;5912;51.034;6.984;2023-01-27T08:43:36;100468.84;;;1.16;90.25
11712;BME280;5912;51.034;6.984;2023-01-27T08:46:02;100468.19;;;1.32;89.00
11712;BME280;5912;51.034;6.984;2023-01-27T08:48:28;100468.13;;;1.41;88.41
11712;BME280;5912;51.034;6.984;2023-01-27T08:50:55;100471.44;;;1.51;87.40
11712;BME280;5912;51.034;6.984;2023-01-27T08:53:22;100456.25;;;1.57;88.50
11712;BME280;5912;51.034;6.984;2023-01-27T08:55:48;100472.66;;;1.83;87.80
11712;BME280;5912;51.034;6.984;2023-01-27T08:58:13;100470.50;;;2.04;86.87
11712;BME280;5912;51.034;6.984;2023-01-27T09:00:42;100474.50;;;2.16;86.17
11712;BME280;5912;51.034;6.984;2023-01-27T09:03:07;100474.06;;;2.28;83.88
11712;BME280;5912;51.034;6.984;2023-01-27T09:05:34;100476.41;;;2.39;83.66
11712;BME280;5912;51.034;6.984;2023-01-27T09:08:00;100466.69;;;2.41;82.94
11712;BME280;5912;51.034;6.984;2023-01-27T09:10:25;100476.16;;;2.58;82.94
11712;BME280;5912;51.034;6.984;2023-01-27T09:12:51;100476.03;;;2.68;83.36
11712;BME280;5912;51.034;6.984;2023-01-27T09:15:16;100427.16;;;2.47;83.18
11712;BME280;5912;51.034;6.984;2023-01-27T09:17:41;100477.56;;;2.86;81.55
11712;BME280;5912;51.034;6.984;2023-01-27T09:20:08;100478.66;;;2.76;80.52
11712;BME280;5912;51.034;6.984;2023-01-27T09:22:33;100481.88;;;2.70;80.45
11712;BME280;5912;51.034;6.984;2023-01-27T09:25:07;100491.44;;;2.69;81.24
11712;BME280;5912;51.034;6.984;2023-01-27T09:27:33;100489.72;;;2.78;80.85
11712;BME280;5912;51.034;6.984;2023-01-27T09:29:58;100494.25;;;2.84;79.99
11712;BME280;5912;51.034;6.984;2023-01-27T09:32:23;100495.69;;;2.78;79.91
11712;BME280;5912;51.034;6.984;2023-01-27T09:34:49;100430.66;;;2.30;80.33
11712;BME280;5912;51.034;6.984;2023-01-27T09:37:14;100506.03;;;2.62;81.25
11712;BME280;5912;51.034;6.984;2023-01-27T09:39:46;100501.94;;;2.60;80.35
11712;BME280;5912;51.034;6.984;2023-01-27T09:50:30;100518.72;;;2.73;80.05
11712;BME280;5912;51.034;6.984;2023-01-27T09:53:39;100526.78;;;2.62;80.23
11712;BME280;5912;51.034;6.984;2023-01-27T09:56:13;100529.50;;;2.61;81.30
11712;BME280;5912;51.034;6.984;2023-01-27T10:01:55;100528.41;;;2.63;81.35
11712;BME280;5912;51.034;6.984;2023-01-27T10:13:10;100531.69;;;2.73;81.50
11712;BME280;5912;51.034;6.984;2023-01-27T10:15:56;100505.13;;;2.46;81.25
11712;BME280;5912;51.034;6.984;2023-01-27T10:26:38;100524.78;;;2.90;82.49
11712;BME280;5912;51.034;6.984;2023-01-27T10:29:23;100527.72;;;2.95;81.17
11712;BME280;5912;51.034;6.984;2023-01-27T10:40:39;100542.88;;;2.74;81.42
11712;BME280;5912;51.034;6.984;2023-01-27T10:43:21;100538.00;;;2.71;82.65
11712;BME280;5912;51.034;6.984;2023-01-27T10:45:55;100528.25;;;2.65;82.92
11712;BME280;5912;51.034;6.984;2023-01-27T10:48:35;100538.97;;;2.70;83.13
11712;BME280;5912;51.034;6.984;2023-01-27T10:51:08;100531.84;;;2.72;82.45
11712;BME280;5912;51.034;6.984;2023-01-27T10:54:12;100539.00;;;2.78;82.13
11712;BME280;5912;51.034;6.984;2023-01-27T10:56:57;100537.41;;;2.85;82.64
11712;BME280;5912;51.034;6.984;2023-01-27T11:02:34;100530.97;;;2.97;81.71
11712;BME280;5912;51.034;6.984;2023-01-27T11:05:07;100533.44;;;3.07;81.63
11712;BME280;5912;51.034;6.984;2023-01-27T11:07:43;100530.53;;;3.10;80.63
11712;BME280;5912;51.034;6.984;2023-01-27T11:10:18;100529.72;;;3.09;80.82
11712;BME280;5912;51.034;6.984;2023-01-27T11:12:51;100529.69;;;3.01;80.40
11712;BME280;5912;51.034;6.984;2023-01-27T11:15:31;100538.25;;;2.93;81.45
11712;BME280;5912;51.034;6.984;2023-01-27T11:18:19;100526.72;;;2.88;80.24
11712;BME280;5912;51.034;6.984;2023-01-27T11:21:10;100529.78;;;2.83;80.37
11712;BME280;5912;51.034;6.984;2023-01-27T11:23:42;100533.81;;;2.78;80.45
11712;BME280;5912;51.034;6.984;2023-01-27T11:26:26;100522.63;;;2.77;80.90
11712;BME280;5912;51.034;6.984;2023-01-27T11:32:02;100520.03;;;3.27;79.94
11712;BME280;5912;51.034;6.984;2023-01-27T11:34:38;100520.06;;;3.51;75.66
11712;BME280;5912;51.034;6.984;2023-01-27T11:37:34;100520.25;;;3.50;74.54
11712;BME280;5912;51.034;6.984;2023-01-27T11:40:01;100509.69;;;3.59;74.03
11712;BME280;5912;51.034;6.984;2023-01-27T11:42:31;100506.44;;;3.73;73.06
11712;BME280;5912;51.034;6.984;2023-01-27T11:44:58;100506.78;;;3.78;72.09
11712;BME280;5912;51.034;6.984;2023-01-27T11:47:30;100496.38;;;3.86;73.34
11712;BME280;5912;51.034;6.984;2023-01-27T11:49:59;100504.44;;;4.23;70.31
11712;BME280;5912;51.034;6.984;2023-01-27T11:52:26;100500.97;;;4.39;70.18
11712;BME280;5912;51.034;6.984;2023-01-27T11:57:42;100511.22;;;4.48;69.48
11712;BME280;5912;51.034;6.984;2023-01-27T12:00:25;100503.38;;;4.56;68.23
11712;BME280;5912;51.034;6.984;2023-01-27T12:03:13;100494.94;;;4.54;67.58
11712;BME280;5912;51.034;6.984;2023-01-27T12:05:47;100493.25;;;4.70;67.63
11712;BME280;5912;51.034;6.984;2023-01-27T12:08:35;100490.81;;;4.68;67.07
11712;BME280;5912;51.034;6.984;2023-01-27T12:11:27;100495.44;;;4.58;65.31
11712;BME280;5912;51.034;6.984;2023-01-27T12:13:59;100491.91;;;4.35;66.71
11712;BME280;5912;51.034;6.984;2023-01-27T12:16:49;100488.50;;;4.26;67.88
11712;BME280;5912;51.034;6.984;2023-01-27T12:19:26;100487.72;;;4.18;70.08
11712;BME280;5912;51.034;6.984;2023-01-27T12:21:57;100488.84;;;4.07;69.91
11712;BME280;5912;51.034;6.984;2023-01-27T12:24:29;100489.34;;;3.95;70.37
11712;BME280;5912;51.034;6.984;2023-01-27T12:26:56;100478.19;;;3.78;69.53
11712;BME280;5912;51.034;6.984;2023-01-27T12:29:31;100477.84;;;3.73;71.16
11712;BME280;5912;51.034;6.984;2023-01-27T12:32:01;100451.84;;;3.41;71.43
11712;BME280;5912;51.034;6.984;2023-01-27T12:34:32;100473.78;;;3.47;72.91
11712;BME280;5912;51.034;6.984;2023-01-27T12:37:01;100479.44;;;3.42;71.56
11712;BME280;5912;51.034;6.984;2023-01-27T12:39:41;100472.97;;;3.38;72.10
11712;BME280;5912;51.034;6.984;2023-01-27T12:42:39;100469.84;;;3.27;73.47
11712;BME280;5912;51.034;6.984;2023-01-27T12:45:26;100465.16;;;3.22;74.15
11712;BME280;5912;51.034;6.984;2023-01-27T12:48:18;100461.72;;;3.14;73.79
11712;BME280;5912;51.034;6.984;2023-01-27T12:53:20;100454.22;;;2.94;75.05
11712;BME280;5912;51.034;6.984;2023-01-27T12:55:54;100462.28;;;2.83;75.67
11712;BME280;5912;51.034;6.984;2023-01-27T13:00:46;100464.38;;;2.80;76.19
11712;BME280;5912;51.034;6.984;2023-01-27T13:03:11;100468.25;;;2.68;77.08
11712;BME280;5912;51.034;6.984;2023-01-27T13:05:38;100467.91;;;2.63;76.90
11712;BME280;5912;51.034;6.984;2023-01-27T13:08:12;100480.53;;;2.58;78.14
11712;BME280;5912;51.034;6.984;2023-01-27T13:10:50;100462.16;;;2.51;77.58
11712;BME280;5912;51.034;6.984;2023-01-27T13:13:20;100470.34;;;2.64;76.93
11712;BME280;5912;51.034;6.984;2023-01-27T13:16:14;100476.19;;;2.66;76.75
11712;BME280;5912;51.034;6.984;2023-01-27T13:18:41;100469.03;;;2.60;76.97
11712;BME280;5912;51.034;6.984;2023-01-27T13:21:15;100455.38;;;2.50;76.58
11712;BME280;5912;51.034;6.984;2023-01-27T13:23:41;100478.44;;;2.61;77.30
11712;BME280;5912;51.034;6.984;2023-01-27T13:28:43;100481.38;;;2.66;77.81
11712;BME280;5912;51.034;6.984;2023-01-27T13:31:16;100484.13;;;2.65;77.03
11712;BME280;5912;51.034;6.984;2023-01-27T13:33:50;100480.88;;;2.63;77.44
11712;BME280;5912;51.034;6.984;2023-01-27T13:36:31;100483.63;;;2.61;77.53
11712;BME280;5912;51.034;6.984;2023-01-27T13:39:17;100492.88;;;2.56;76.43
11712;BME280;5912;51.034;6.984;2023-01-27T13:45:02;100490.88;;;2.50;78.54
11712;BME280;5912;51.034;6.984;2023-01-27T13:47:39;100496.56;;;2.53;79.25
11712;BME280;5912;51.034;6.984;2023-01-27T13:50:23;100493.31;;;2.51;79.84
11712;BME280;5912;51.034;6.984;2023-01-27T13:52:53;100498.81;;;2.48;80.03
11712;BME280;5912;51.034;6.984;2023-01-27T13:58:03;100501.97;;;2.34;80.11
11712;BME280;5912;51.034;6.984;2023-01-27T14:00:44;100478.53;;;2.18;80.27
11712;BME280;5912;51.034;6.984;2023-01-27T14:03:24;100502.78;;;2.35;81.09
11712;BME280;5912;51.034;6.984;2023-01-27T14:06:19;100503.66;;;2.43;81.08
11712;BME280;5912;51.034;6.984;2023-01-27T14:11:58;100490.09;;;2.57;78.43
11712;BME280;5912;51.034;6.984;2023-01-27T14:17:20;100511.63;;;2.50;77.10
11712;BME280;5912;51.034;6.984;2023-01-27T14:26:17;100517.38;;;2.36;78.25
11712;BME280;5912;51.034;6.984;2023-01-27T14:29:19;100518.34;;;2.35;78.53
11712;BME280;5912;51.034;6.984;2023-01-27T14:32:20;100516.38;;;2.29;77.72
11712;BME280;5912;51.034;6.984;2023-01-27T14:40:19;100525.88;;;2.20;77.61
11712;BME280;5912;51.034;6.984;2023-01-27T14:43:03;100522.81;;;2.25;77.85
11712;BME280;5912;51.034;6.984;2023-01-27T14:45:46;100511.78;;;2.23;77.55